Ambulong, Philippines

8:22 PM PHT on January 27, 2015 (GMT +0800)
UP Los Banos | Change Station
CLOSE
Current Station
Personal Weather Station
Location: Los Baños, CALABARZON
Elevation: 860 ft
Nearby Weather Stations

Elev 860 ft 14.17 °N, 121.24 °E | Updated 9 minutes ago

Mostly Cloudy
Mostly Cloudy
76.6 °F
Feels Like 78 °F
N
2.0
Wind Variable Wind from SW
Gusts 4.0 mph

Today
High -- | Low -- °F
--% Chance of Precip.
Yesterday
High -- | Low -- °F
Precip. -- in
6:24 AM 5:52 PM
First Quarter, 53% visible
Pressure 29.89 in
Visibility 6.2 miles
Clouds Scattered Clouds 2500 ft
Mostly Cloudy 9000 ft
Heat Index 78 °F
Dew Point 70 °F
Humidity 81%
Rainfall 0.00 in
Snow Depth Not available.
UV 0 out of 12
Pollen Not available.
Air Quality Not available.
Flu Activity Not available.
METAR RPLL 271200Z 13006KT 090V170 9999 SCT025 BKN090 26/21 Q1012 NOSIG RMK A2988

More Conditions Fewer Conditions

Pressure 29.89 in
Visibility 6.2 miles
Clouds Scattered Clouds 2500 ft
Mostly Cloudy 9000 ft
Heat Index 78 °F
Dew Point 70 °F
Humidity 81%
Rainfall 0.00 in
Snow Depth Not available.
UV 0 out of 12
Pollen Not available.
Air Quality Not available.
Flu Activity Not available.
METAR RPLL 271200Z 13006KT 090V170 9999 SCT025 BKN090 26/21 Q1012 NOSIG RMK A2988

More Conditions Fewer Conditions

10-Day Weather Forecast

Almanac

Astronomy

Jan. 27, 2015 Rise Set
Actual Time
Civil Twilight
Nautical Twilight
Astronomical Twilight
Moon
Length of Visible Light
Length of Day
Tomorrow will be .
, % of the Moon is Illuminated

Today's Extremes

Country Highs Country Lows

Community

WunderPhotos

Upload Photos

1,790,579 photos uploaded!

WunderBlogs® & News

Nearby

Air Quality

  Air Quality AQ Index Pollutant
Not available.

Snow Depth

Station Depth Elevation

Earthquake Activity

City Distance Mag. Time & Date
Minimum magnitude displayed is 2.5.

Coastal Water Temperatures

Place Temperature

Nearby Weather Stations